Time;durP1;ratioP1;P1;durP2;ratioP2;P2;SDS_P1;SDS_P2;PMS_P1;PMS_P2;Temp;Humidity;BMP_temperature;BMP_pressure;BME280_temperature;BME280_humidity;BME280_pressure;Samples;Min_cycle;Max_cycle;Signal;HPM_P1;HPM_P2
2021/01/09 00:01:59;;;;;;;46.05;37.58;;;20.10;54.20;;;;;;5079049;28;20048;-49
2021/01/09 00:04:25;;;;;;;44.40;36.78;;;20.10;54.20;;;;;;5078713;28;20081;-49
2021/01/09 00:06:51;;;;;;;36.90;32.97;;;20.10;54.20;;;;;;5089057;28;20063;-49
2021/01/09 00:09:17;;;;;;;40.00;35.17;;;20.10;54.20;;;;;;5087370;28;20064;-49
2021/01/09 00:11:43;;;;;;;40.53;35.17;;;20.10;54.20;;;;;;5082590;28;20029;-49
2021/01/09 00:14:10;;;;;;;42.20;35.20;;;20.00;54.20;;;;;;5089683;28;20485;-49
2021/01/09 00:16:36;;;;;;;39.80;34.08;;;20.10;54.20;;;;;;5082737;28;20138;-49
2021/01/09 00:19:04;;;;;;;37.17;33.15;;;20.00;54.10;;;;;;5085020;28;20186;-49
2021/01/09 00:21:34;;;;;;;40.38;34.80;;;20.00;54.10;;;;;;5089270;28;20040;-49
2021/01/09 00:24:01;;;;;;;38.58;32.63;;;20.00;54.10;;;;;;5087210;28;20051;-49
2021/01/09 00:26:30;;;;;;;40.92;35.17;;;20.00;54.80;;;;;;5084054;28;20024;-49
2021/01/09 00:28:56;;;;;;;38.72;34.40;;;20.00;54.10;;;;;;5079087;28;20028;-49
2021/01/09 00:31:23;;;;;;;40.72;34.45;;;20.00;54.10;;;;;;5086084;28;20043;-49
2021/01/09 00:33:49;;;;;;;39.08;34.00;;;20.00;54.10;;;;;;5079609;28;20098;-49
2021/01/09 00:36:15;;;;;;;38.25;34.22;;;20.00;54.10;;;;;;5092605;28;20028;-49
2021/01/09 00:38:41;;;;;;;36.53;31.48;;;19.90;54.10;;;;;;5092412;28;20032;-49
2021/01/09 00:41:07;;;;;;;38.47;32.88;;;19.90;54.10;;;;;;5086091;28;20024;-49
2021/01/09 00:43:33;;;;;;;37.67;32.90;;;19.90;54.10;;;;;;5088822;28;20039;-49
2021/01/09 00:45:59;;;;;;;37.42;32.63;;;19.90;54.70;;;;;;5082439;28;20066;-49
2021/01/09 00:48:25;;;;;;;41.63;33.88;;;19.90;54.10;;;;;;5089472;28;20027;-49
2021/01/09 00:50:51;;;;;;;35.55;31.80;;;19.90;54.10;;;;;;5084928;28;20036;-49
2021/01/09 00:53:17;;;;;;;36.25;31.30;;;19.90;54.10;;;;;;5084690;28;20021;-49
2021/01/09 00:55:44;;;;;;;38.45;33.45;;;19.90;54.10;;;;;;5086775;28;20059;-49
2021/01/09 00:58:10;;;;;;;36.55;32.47;;;19.90;54.10;;;;;;5089915;28;20032;-49
2021/01/09 01:00:36;;;;;;;35.78;31.40;;;19.90;54.10;;;;;;5083916;28;20028;-49
2021/01/09 01:03:02;;;;;;;34.80;29.17;;;19.90;54.10;;;;;;5088717;28;20034;-49
2021/01/09 01:05:28;;;;;;;34.75;30.98;;;19.90;54.10;;;;;;5090734;28;20028;-49
2021/01/09 01:07:54;;;;;;;38.08;30.52;;;19.80;54.00;;;;;;5086447;28;20082;-48
2021/01/09 01:10:20;;;;;;;31.70;27.27;;;19.80;54.00;;;;;;5089227;28;20040;-49
2021/01/09 01:12:46;;;;;;;31.40;24.67;;;19.80;53.90;;;;;;5080427;28;20039;-49
2021/01/09 01:15:13;;;;;;;26.10;23.40;;;19.80;53.80;;;;;;5084610;28;20020;-49
2021/01/09 01:17:39;;;;;;;28.30;23.63;;;19.80;53.80;;;;;;5080462;28;20103;-49
2021/01/09 01:20:05;;;;;;;28.17;23.73;;;19.80;53.80;;;;;;5069129;28;20140;-49
2021/01/09 01:22:31;;;;;;;26.45;21.08;;;19.80;53.70;;;;;;5089849;28;20073;-48
2021/01/09 01:24:58;;;;;;;27.42;21.48;;;19.70;53.60;;;;;;5089671;28;20029;-49
2021/01/09 01:27:24;;;;;;;22.67;19.15;;;19.70;53.50;;;;;;5085094;28;20771;-48
2021/01/09 01:29:50;;;;;;;22.98;19.23;;;19.70;53.50;;;;;;5079287;28;20017;-48
2021/01/09 01:32:16;;;;;;;27.83;19.85;;;19.70;53.50;;;;;;5083162;28;20036;-49
2021/01/09 01:34:42;;;;;;;23.00;19.55;;;19.70;53.50;;;;;;5084562;28;20024;-49
2021/01/09 01:37:08;;;;;;;26.05;20.00;;;19.70;53.40;;;;;;5091933;28;20020;-49
2021/01/09 01:39:34;;;;;;;23.65;18.63;;;19.70;53.40;;;;;;5070164;28;20024;-49
2021/01/09 01:42:00;;;;;;;21.70;16.70;;;19.70;53.40;;;;;;5064869;28;20032;-49
2021/01/09 01:44:29;;;;;;;20.92;17.05;;;19.70;53.40;;;;;;5084685;28;20504;-49
2021/01/09 01:46:55;;;;;;;23.55;15.88;;;19.70;53.30;;;;;;5084771;28;20024;-49
2021/01/09 01:49:21;;;;;;;17.80;15.85;;;19.60;53.20;;;;;;5092755;28;20419;-49
2021/01/09 01:51:49;;;;;;;24.00;14.43;;;19.70;53.20;;;;;;5077299;28;20027;-49
2021/01/09 01:54:15;;;;;;;19.30;14.15;;;19.60;53.20;;;;;;5088182;28;20032;-49
2021/01/09 01:56:41;;;;;;;19.10;14.52;;;19.60;53.20;;;;;;5078278;28;20129;-49
2021/01/09 01:59:07;;;;;;;17.88;13.48;;;19.60;53.10;;;;;;5082078;28;20025;-49
2021/01/09 02:01:34;;;;;;;15.45;11.50;;;19.60;52.90;;;;;;5089953;28;20112;-50
2021/01/09 02:04:00;;;;;;;15.90;12.10;;;19.60;52.80;;;;;;5082273;28;20024;-48
2021/01/09 02:06:34;;;;;;;15.80;11.90;;;19.60;52.80;;;;;;5083796;28;20030;-49
2021/01/09 02:09:13;;;;;;;14.07;11.55;;;19.60;52.60;;;;;;5063145;28;20036;-49
2021/01/09 02:12:02;;;;;;;12.55;11.07;;;19.60;52.50;;;;;;5078266;28;20024;-48
2021/01/09 02:14:51;;;;;;;11.68;9.52;;;19.60;52.30;;;;;;5078527;28;20024;-48
2021/01/09 02:17:19;;;;;;;13.00;10.38;;;19.60;52.20;;;;;;5082968;28;20024;-49
2021/01/09 02:19:45;;;;;;;13.20;9.75;;;19.60;52.00;;;;;;5089610;28;20048;-48
2021/01/09 02:22:14;;;;;;;10.93;9.00;;;19.60;52.10;;;;;;5065973;28;20093;-49
2021/01/09 02:24:41;;;;;;;12.43;9.70;;;19.60;51.90;;;;;;5085989;28;20024;-48
2021/01/09 02:27:07;;;;;;;10.30;9.20;;;19.60;51.90;;;;;;5086055;28;20058;-48
2021/01/09 02:29:39;;;;;;;11.20;8.85;;;19.60;51.90;;;;;;5090673;28;20535;-48
2021/01/09 02:32:09;;;;;;;14.30;9.00;;;19.60;51.70;;;;;;5091169;28;20160;-48
2021/01/09 02:34:41;;;;;;;9.48;7.75;;;19.50;51.70;;;;;;5089963;28;20486;-48
2021/01/09 02:37:10;;;;;;;11.43;8.95;;;19.50;51.60;;;;;;5086050;28;20360;-48
2021/01/09 02:39:37;;;;;;;8.57;7.68;;;19.60;51.70;;;;;;5081031;28;20073;-48
2021/01/09 02:42:04;;;;;;;10.50;7.60;;;19.60;51.60;;;;;;5086230;28;20099;-48
2021/01/09 02:44:30;;;;;;;8.38;7.47;;;19.60;51.50;;;;;;5083509;28;20107;-51
2021/01/09 02:46:57;;;;;;;8.10;7.30;;;19.60;51.60;;;;;;5083195;28;20047;-49
2021/01/09 02:49:23;;;;;;;8.18;7.20;;;19.50;51.50;;;;;;5087205;28;20107;-49
2021/01/09 02:51:49;;;;;;;8.80;7.07;;;19.50;52.10;;;;;;5087950;28;20111;-49
2021/01/09 02:54:14;;;;;;;8.73;7.13;;;19.50;51.30;;;;;;5061872;28;20039;-50
2021/01/09 02:56:40;;;;;;;8.27;7.25;;;19.60;51.30;;;;;;5087688;28;20021;-49
2021/01/09 02:59:06;;;;;;;8.23;7.30;;;19.60;51.30;;;;;;5082856;28;20020;-49
2021/01/09 03:01:32;;;;;;;8.50;7.15;;;19.50;51.30;;;;;;5083603;28;20068;-49
2021/01/09 03:03:59;;;;;;;9.65;7.10;;;19.50;51.20;;;;;;5087463;28;20046;-49
2021/01/09 03:06:25;;;;;;;8.60;6.78;;;19.60;51.30;;;;;;5084254;28;20031;-50
2021/01/09 03:08:52;;;;;;;9.52;7.30;;;19.50;51.10;;;;;;5082068;28;20028;-49
2021/01/09 03:11:19;;;;;;;7.30;6.60;;;19.60;51.20;;;;;;5089314;28;20028;-49
2021/01/09 03:13:46;;;;;;;8.45;7.13;;;19.60;51.20;;;;;;5087847;28;20103;-49
2021/01/09 03:16:12;;;;;;;8.57;6.90;;;19.60;51.10;;;;;;5086022;28;20024;-49
2021/01/09 03:18:38;;;;;;;8.07;7.22;;;19.60;51.10;;;;;;5088934;28;20517;-49
2021/01/09 03:21:06;;;;;;;8.40;7.28;;;19.60;50.90;;;;;;5085050;28;20115;-49
2021/01/09 03:23:32;;;;;;;9.15;7.07;;;19.60;50.90;;;;;;5086023;28;20055;-49
2021/01/09 03:25:58;;;;;;;6.82;6.00;;;19.60;50.80;;;;;;5088368;28;20024;-49
2021/01/09 03:28:24;;;;;;;6.97;6.28;;;19.50;50.50;;;;;;5085186;28;20493;-49
2021/01/09 03:30:51;;;;;;;6.78;5.95;;;19.60;50.40;;;;;;5086398;28;20032;-49
2021/01/09 03:33:17;;;;;;;6.28;5.10;;;19.50;50.00;;;;;;5086986;28;20024;-49
2021/01/09 03:35:43;;;;;;;6.05;5.30;;;19.60;49.80;;;;;;5087905;28;20024;-49
2021/01/09 03:38:09;;;;;;;6.20;4.68;;;19.50;49.70;;;;;;5084058;28;20101;-50
2021/01/09 03:40:35;;;;;;;6.55;5.43;;;19.50;49.70;;;;;;5079509;28;20089;-47
2021/01/09 03:43:01;;;;;;;7.78;5.63;;;19.50;49.70;;;;;;5080259;28;20462;-48
2021/01/09 03:45:28;;;;;;;4.78;4.28;;;19.60;49.70;;;;;;5083544;28;20032;-48
2021/01/09 03:47:54;;;;;;;6.18;4.63;;;19.50;49.40;;;;;;5083961;28;20039;-48
2021/01/09 03:50:20;;;;;;;6.05;5.20;;;19.50;49.50;;;;;;5084724;28;20029;-48
2021/01/09 03:52:46;;;;;;;7.15;5.05;;;19.50;49.50;;;;;;5089028;28;20059;-48
2021/01/09 03:55:12;;;;;;;7.18;5.50;;;19.50;49.60;;;;;;5081225;28;20390;-48
2021/01/09 03:57:38;;;;;;;7.80;5.13;;;19.50;49.70;;;;;;5079944;28;20066;-48
2021/01/09 04:00:05;;;;;;;6.75;5.30;;;19.50;49.70;;;;;;5079516;28;20388;-49
2021/01/09 04:02:35;;;;;;;5.78;5.25;;;19.50;50.10;;;;;;5082600;28;20109;-49
2021/01/09 04:05:01;;;;;;;6.50;4.90;;;19.50;49.60;;;;;;5081076;28;20024;-48
2021/01/09 04:07:27;;;;;;;5.85;5.22;;;19.50;49.60;;;;;;5081798;28;20482;-48
2021/01/09 04:09:53;;;;;;;5.38;4.88;;;19.50;49.50;;;;;;5077678;28;20040;-48
2021/01/09 04:12:19;;;;;;;6.18;5.28;;;19.50;49.60;;;;;;5065582;28;20370;-48
2021/01/09 04:14:45;;;;;;;5.32;4.80;;;19.50;49.70;;;;;;5084572;28;20024;-48
2021/01/09 04:17:11;;;;;;;6.88;5.63;;;19.50;49.70;;;;;;5085021;28;20023;-48
2021/01/09 04:19:37;;;;;;;6.72;5.35;;;19.50;49.70;;;;;;5082865;28;20052;-49
2021/01/09 04:22:03;;;;;;;7.38;6.20;;;19.50;49.80;;;;;;5088394;28;20024;-49
2021/01/09 04:24:29;;;;;;;6.63;5.10;;;19.50;49.70;;;;;;5085616;28;20033;-49
2021/01/09 04:27:01;;;;;;;6.50;5.13;;;19.50;49.70;;;;;;5082748;28;20031;-49
2021/01/09 04:29:28;;;;;;;5.30;4.70;;;19.50;49.70;;;;;;5081638;28;20050;-49
2021/01/09 04:31:55;;;;;;;5.38;4.88;;;19.50;49.70;;;;;;5088397;28;20028;-49
2021/01/09 04:34:22;;;;;;;5.80;4.85;;;19.50;49.70;;;;;;5085149;28;20024;-49
2021/01/09 04:36:49;;;;;;;6.25;5.07;;;19.50;50.30;;;;;;5096988;28;20027;-49
2021/01/09 04:39:15;;;;;;;5.85;5.13;;;19.50;49.70;;;;;;5067843;28;20016;-48
2021/01/09 04:41:42;;;;;;;5.68;4.82;;;19.50;49.70;;;;;;5075625;28;20033;-49
2021/01/09 04:44:09;;;;;;;6.20;4.80;;;19.50;50.40;;;;;;5079955;28;20115;-49
2021/01/09 04:46:54;;;;;;;5.82;4.97;;;19.50;49.80;;;;;;5082277;28;20462;-49
2021/01/09 04:49:25;;;;;;;5.95;4.95;;;19.50;49.80;;;;;;5077095;28;20487;-48
2021/01/09 04:51:52;;;;;;;6.25;4.95;;;19.50;49.90;;;;;;5079843;28;20035;-48
2021/01/09 04:54:20;;;;;;;5.03;4.53;;;19.50;50.00;;;;;;5086050;28;20020;-48
2021/01/09 04:56:51;;;;;;;6.75;5.32;;;19.50;50.10;;;;;;5083277;28;20021;-48
2021/01/09 04:59:18;;;;;;;5.95;5.00;;;19.50;50.10;;;;;;5088421;28;20070;-48
2021/01/09 05:01:45;;;;;;;6.10;5.50;;;19.50;50.20;;;;;;5084341;28;20099;-48
2021/01/09 05:04:12;;;;;;;7.65;5.78;;;19.50;50.20;;;;;;5066093;28;20040;-48
2021/01/09 05:06:42;;;;;;;6.65;5.70;;;19.50;50.20;;;;;;5087948;28;20477;-48
2021/01/09 05:09:09;;;;;;;5.43;4.93;;;19.40;50.10;;;;;;5067511;28;20061;-48
2021/01/09 05:11:36;;;;;;;5.15;4.65;;;19.40;50.10;;;;;;5086899;28;20016;-48
2021/01/09 05:14:06;;;;;;;6.18;5.10;;;19.40;50.10;;;;;;5082007;28;20069;-48
2021/01/09 05:16:33;;;;;;;6.27;4.30;;;19.40;50.00;;;;;;5087892;28;20032;-48
2021/01/09 05:18:59;;;;;;;5.38;4.88;;;19.50;50.00;;;;;;5083914;28;20036;-48
2021/01/09 05:21:27;;;;;;;6.55;4.47;;;19.40;49.90;;;;;;5084121;28;20037;-48
2021/01/09 05:24:01;;;;;;;6.35;3.88;;;19.40;49.60;;;;;;5077923;28;20039;-48
2021/01/09 05:26:27;;;;;;;4.68;4.07;;;19.40;49.50;;;;;;5088085;28;20110;-48
2021/01/09 05:29:01;;;;;;;5.00;4.50;;;19.40;49.40;;;;;;5085447;28;20032;-48
2021/01/09 05:31:30;;;;;;;7.28;3.63;;;19.40;49.20;;;;;;5087001;28;20043;-48
2021/01/09 05:33:56;;;;;;;5.05;3.95;;;19.40;49.30;;;;;;5090018;28;20034;-48
2021/01/09 05:36:23;;;;;;;4.72;4.20;;;19.40;49.20;;;;;;5077213;28;20027;-48
2021/01/09 05:38:50;;;;;;;5.20;4.00;;;19.30;49.20;;;;;;5083181;28;20051;-48
2021/01/09 05:41:21;;;;;;;4.40;3.70;;;19.30;49.20;;;;;;5079918;28;20356;-48
2021/01/09 05:44:08;;;;;;;4.70;3.50;;;19.30;49.20;;;;;;5082333;28;20115;-48
2021/01/09 05:46:40;;;;;;;4.13;3.72;;;19.30;49.10;;;;;;5084139;28;20036;-48
2021/01/09 05:49:07;;;;;;;5.32;3.92;;;19.30;49.20;;;;;;5075753;28;20046;-48
2021/01/09 05:51:35;;;;;;;4.53;3.60;;;19.30;49.40;;;;;;5078975;28;20041;-47
2021/01/09 05:54:01;;;;;;;6.78;4.65;;;19.30;49.40;;;;;;5085196;28;20431;-48
2021/01/09 05:56:27;;;;;;;4.97;3.63;;;19.30;49.50;;;;;;5061950;28;20127;-48
2021/01/09 05:58:55;;;;;;;4.32;3.80;;;19.30;49.60;;;;;;5088426;28;20024;-49
2021/01/09 06:01:29;;;;;;;6.07;4.63;;;19.30;49.60;;;;;;5079370;28;20024;-49
2021/01/09 06:04:15;;;;;;;4.28;3.83;;;19.30;49.60;;;;;;5081239;28;20033;-49
2021/01/09 06:06:57;;;;;;;4.40;3.45;;;19.30;49.60;;;;;;5086175;28;20028;-47
2021/01/09 06:09:34;;;;;;;5.93;3.58;;;19.30;49.60;;;;;;5078251;28;20044;-49
2021/01/09 06:12:06;;;;;;;4.00;3.50;;;19.30;49.60;;;;;;5069709;28;20032;-49
2021/01/09 06:14:35;;;;;;;5.07;3.45;;;19.30;49.60;;;;;;5084733;28;20030;-49
2021/01/09 06:17:03;;;;;;;5.22;4.07;;;19.30;49.60;;;;;;5076711;28;20107;-50
2021/01/09 06:19:31;;;;;;;4.45;3.78;;;19.30;49.60;;;;;;5079854;28;20510;-48
2021/01/09 06:21:59;;;;;;;4.40;3.88;;;19.30;49.70;;;;;;5079158;28;20439;-49
2021/01/09 06:24:25;;;;;;;3.92;3.53;;;19.30;49.80;;;;;;5090101;28;20051;-48
2021/01/09 06:26:51;;;;;;;3.58;3.28;;;19.30;50.30;;;;;;5077298;28;20028;-49
2021/01/09 06:29:27;;;;;;;3.80;3.20;;;19.30;49.80;;;;;;5083924;28;20067;-49
2021/01/09 06:31:56;;;;;;;6.75;3.90;;;19.30;49.80;;;;;;5076584;28;20033;-49
2021/01/09 06:34:26;;;;;;;3.60;3.10;;;19.30;49.90;;;;;;5087155;28;20371;-49
2021/01/09 06:37:01;;;;;;;3.80;3.50;;;19.30;49.90;;;;;;5082307;28;20056;-47
2021/01/09 06:39:30;;;;;;;5.03;3.40;;;19.20;49.90;;;;;;5085154;28;20024;-48
2021/01/09 06:41:59;;;;;;;4.03;3.63;;;19.20;50.00;;;;;;5075920;28;20040;-48
2021/01/09 06:44:26;;;;;;;3.78;3.33;;;19.20;49.90;;;;;;5077094;28;20474;-48
2021/01/09 06:46:54;;;;;;;5.28;3.30;;;19.20;50.00;;;;;;5076021;28;20048;-48
2021/01/09 06:49:25;;;;;;;4.07;3.38;;;19.20;50.10;;;;;;5077438;28;20094;-47
2021/01/09 06:51:55;;;;;;;4.70;3.15;;;19.20;50.00;;;;;;5077113;28;20028;-47
2021/01/09 06:54:22;;;;;;;3.30;2.97;;;19.20;50.00;;;;;;5088239;28;20020;-47
2021/01/09 06:57:13;;;;;;;3.95;3.22;;;19.20;50.10;;;;;;5074334;28;20017;-48
2021/01/09 06:59:42;;;;;;;3.35;2.90;;;19.20;50.70;;;;;;5076897;28;20097;-48
2021/01/09 07:02:22;;;;;;;4.00;3.50;;;19.20;50.10;;;;;;5084637;28;20419;-48
2021/01/09 07:04:52;;;;;;;5.25;3.15;;;19.20;50.10;;;;;;5081780;28;20730;-49
2021/01/09 07:07:25;;;;;;;;;;;19.20;50.10;;;;;;5083748;28;20401;-49
2021/01/09 07:09:51;;;;;;;4.30;3.20;;;19.20;50.30;;;;;;5079996;28;19918;-48
2021/01/09 07:12:18;;;;;;;5.75;3.30;;;19.30;50.00;;;;;;5075417;28;20047;-51
2021/01/09 07:14:44;;;;;;;3.92;2.70;;;19.30;50.00;;;;;;5088006;28;20073;-51
2021/01/09 07:17:15;;;;;;;3.75;3.13;;;19.20;50.10;;;;;;5081623;28;20048;-51
2021/01/09 07:19:42;;;;;;;3.58;3.13;;;19.20;50.00;;;;;;5085746;28;20506;-51
2021/01/09 07:22:10;;;;;;;3.03;2.58;;;19.20;50.00;;;;;;5083507;28;20424;-48
2021/01/09 07:24:39;;;;;;;3.30;3.00;;;19.20;49.90;;;;;;5081514;28;20020;-48
2021/01/09 07:27:07;;;;;;;2.97;2.53;;;19.20;49.70;;;;;;5080294;28;20429;-48
2021/01/09 07:29:42;;;;;;;3.88;2.80;;;19.20;49.70;;;;;;5068810;28;20024;-48
2021/01/09 07:32:08;;;;;;;3.47;2.92;;;19.20;49.50;;;;;;5073617;28;20089;-48
2021/01/09 07:34:36;;;;;;;3.10;2.40;;;19.10;49.60;;;;;;5062984;28;20375;-48
2021/01/09 07:37:02;;;;;;;2.88;2.58;;;19.10;49.30;;;;;;5085359;28;20028;-48
2021/01/09 07:39:29;;;;;;;2.05;1.85;;;19.10;49.30;;;;;;5082930;28;20017;-48
2021/01/09 07:41:56;;;;;;;3.30;2.20;;;19.10;49.10;;;;;;5086046;28;20040;-48
2021/01/09 07:44:25;;;;;;;3.20;2.67;;;19.20;49.20;;;;;;5064869;28;20028;-48
2021/01/09 07:47:00;;;;;;;10.00;8.57;;;19.20;49.10;;;;;;5069585;28;20021;-48
2021/01/09 07:49:37;;;;;;;9.63;8.23;;;19.10;49.00;;;;;;5079584;28;20032;-46
2021/01/09 07:52:05;;;;;;;10.88;7.53;;;19.10;49.50;;;;;;5084540;28;20036;-46
2021/01/09 07:54:36;;;;;;;9.10;7.43;;;19.10;49.10;;;;;;5083984;28;20032;-47
2021/01/09 07:57:20;;;;;;;10.00;8.10;;;19.10;49.30;;;;;;5082475;28;20265;-47
2021/01/09 07:59:55;;;;;;;7.47;6.43;;;19.10;49.30;;;;;;5078512;28;20024;-46
2021/01/09 08:02:24;;;;;;;8.63;7.05;;;19.10;49.30;;;;;;5082193;28;20055;-47
2021/01/09 08:05:00;;;;;;;6.72;6.03;;;19.10;49.40;;;;;;5080795;28;20079;-47
2021/01/09 08:07:26;;;;;;;7.40;6.28;;;19.10;49.50;;;;;;5084242;28;20243;-47
2021/01/09 08:09:53;;;;;;;6.30;5.70;;;19.20;49.50;;;;;;5066540;28;20020;-47
2021/01/09 08:12:28;;;;;;;6.90;6.20;;;19.20;49.80;;;;;;5065701;28;20027;-47
2021/01/09 08:14:58;;;;;;;7.78;6.50;;;19.20;49.60;;;;;;5059333;28;20367;-46
2021/01/09 08:17:24;;;;;;;17.13;15.40;;;19.20;49.60;;;;;;5061798;28;20514;-47
2021/01/09 08:19:50;;;;;;;30.40;27.38;;;19.20;49.70;;;;;;5075756;28;20067;-47
2021/01/09 08:22:16;;;;;;;40.20;35.92;;;19.20;49.70;;;;;;5075853;28;20546;-47
2021/01/09 08:24:42;;;;;;;42.50;37.55;;;19.20;49.80;;;;;;5087475;28;20103;-48
2021/01/09 08:27:09;;;;;;;49.95;44.25;;;19.30;49.90;;;;;;5076951;28;20036;-48
2021/01/09 08:29:35;;;;;;;70.97;61.72;;;19.30;49.90;;;;;;5080686;28;20028;-47
2021/01/09 08:32:02;;;;;;;92.63;74.57;;;19.30;49.90;;;;;;5085702;28;20028;-47
2021/01/09 08:34:28;;;;;;;107.03;87.15;;;19.30;49.90;;;;;;5084094;28;20029;-48
2021/01/09 08:36:59;;;;;;;116.70;94.38;;;19.40;50.00;;;;;;5077280;28;20036;-48
2021/01/09 08:39:25;;;;;;;121.15;99.03;;;19.40;50.00;;;;;;5083569;28;20459;-46
2021/01/09 08:41:52;;;;;;;124.40;103.22;;;19.40;50.00;;;;;;5046550;28;20081;-56
2021/01/09 08:44:18;;;;;;;143.25;112.32;;;19.40;50.10;;;;;;5065664;28;20036;-56
2021/01/09 08:46:45;;;;;;;150.13;122.88;;;19.40;50.00;;;;;;5068728;28;20036;-56
2021/01/09 08:49:26;;;;;;;118.40;103.70;;;19.40;50.00;;;;;;5069005;28;20495;-57
2021/01/09 08:52:09;;;;;;;115.88;96.63;;;19.40;49.90;;;;;;5063652;28;20389;-57
2021/01/09 08:54:39;;;;;;;97.55;82.13;;;19.50;50.00;;;;;;5069602;28;20437;-56
2021/01/09 08:57:06;;;;;;;98.28;80.72;;;19.50;50.10;;;;;;5089489;28;20019;-56
2021/01/09 08:59:36;;;;;;;90.95;75.85;;;19.50;50.20;;;;;;5066467;28;20065;-56
2021/01/09 09:02:07;;;;;;;87.07;73.60;;;19.50;50.30;;;;;;5033841;28;20029;-56
2021/01/09 09:04:35;;;;;;;93.47;73.13;;;19.50;50.40;;;;;;5083648;28;20039;-55
2021/01/09 09:07:09;;;;;;;95.13;80.50;;;19.60;50.50;;;;;;5083490;28;20469;-55
2021/01/09 09:09:39;;;;;;;105.05;88.35;;;19.50;50.60;;;;;;5082911;28;20032;-56
2021/01/09 09:12:05;;;;;;;;;;;19.60;50.80;;;;;;5076492;28;20072;-56
2021/01/09 09:14:33;;;;;;;147.93;124.32;;;19.60;50.80;;;;;;5062414;28;19908;-56
2021/01/09 09:17:03;;;;;;;167.07;142.93;;;19.70;50.60;;;;;;5079301;28;20043;-62
2021/01/09 09:19:35;;;;;;;156.68;135.93;;;19.70;50.60;;;;;;5086779;28;20076;-59
2021/01/09 09:22:02;;;;;;;162.43;137.35;;;19.70;50.40;;;;;;5072995;28;20096;-59
2021/01/09 09:24:39;;;;;;;142.95;124.32;;;19.70;50.40;;;;;;5071122;28;20603;-49
2021/01/09 09:27:21;;;;;;;134.38;117.40;;;19.70;50.10;;;;;;5063018;28;20070;-49
2021/01/09 09:29:47;;;;;;;128.55;114.28;;;19.70;50.10;;;;;;5049170;28;20032;-49
2021/01/09 09:32:24;;;;;;;119.63;106.45;;;19.80;50.00;;;;;;5081376;28;20028;-49
2021/01/09 09:34:50;;;;;;;113.13;97.53;;;19.80;49.60;;;;;;5064657;28;20482;-51
2021/01/09 09:37:17;;;;;;;114.07;97.97;;;19.80;49.60;;;;;;5089164;28;20113;-50
2021/01/09 09:39:43;;;;;;;97.15;84.65;;;19.80;49.30;;;;;;5082239;28;20021;-49
2021/01/09 09:42:09;;;;;;;96.85;83.88;;;19.90;48.70;;;;;;5084404;28;20036;-49
2021/01/09 09:44:44;;;;;;;96.97;84.10;;;19.90;48.50;;;;;;5051053;28;20024;-51
2021/01/09 09:47:30;;;;;;;86.50;74.97;;;19.90;48.60;;;;;;5087151;28;20035;-49
2021/01/09 09:50:00;;;;;;;82.03;67.82;;;19.90;48.30;;;;;;5058490;28;20543;-52
2021/01/09 09:52:26;;;;;;;63.72;56.83;;;20.00;48.10;;;;;;5080737;28;20035;-51
2021/01/09 09:55:06;;;;;;;64.50;55.75;;;20.00;47.90;;;;;;5090837;28;20482;-52
2021/01/09 09:57:32;;;;;;;53.60;45.70;;;20.00;47.70;;;;;;5088053;28;20020;-49
2021/01/09 10:00:06;;;;;;;41.85;34.85;;;20.00;47.50;;;;;;5091255;28;20023;-49
2021/01/09 10:02:56;;;;;;;40.65;34.55;;;20.00;46.60;;;;;;5081418;28;20474;-49
2021/01/09 10:05:26;;;;;;;34.92;29.48;;;20.10;46.90;;;;;;5081115;28;20031;-48
2021/01/09 10:08:12;;;;;;;33.13;28.15;;;20.10;46.40;;;;;;5077519;28;20467;-49
2021/01/09 10:10:38;;;;;;;29.10;24.33;;;20.10;46.40;;;;;;5068572;28;20066;-59
2021/01/09 10:13:04;;;;;;;23.50;20.90;;;20.10;46.30;;;;;;5067961;28;20020;-59
2021/01/09 10:15:31;;;;;;;21.40;18.85;;;20.20;46.00;;;;;;5070117;28;20102;-59
2021/01/09 10:17:58;;;;;;;18.92;16.77;;;20.20;45.40;;;;;;5065491;28;20027;-61
2021/01/09 10:20:26;;;;;;;19.38;14.95;;;20.30;45.00;;;;;;5074341;28;20127;-60
2021/01/09 10:22:52;;;;;;;19.38;13.70;;;20.30;44.30;;;;;;5077605;28;20036;-58
2021/01/09 10:25:18;;;;;;;14.93;13.38;;;20.30;44.10;;;;;;5082934;28;20020;-59
2021/01/09 10:27:44;;;;;;;13.88;11.07;;;20.40;43.60;;;;;;5079534;28;20024;-59
2021/01/09 10:30:11;;;;;;;12.57;10.88;;;20.40;43.20;;;;;;5070466;28;20024;-59
2021/01/09 10:32:37;;;;;;;11.18;9.98;;;20.40;42.70;;;;;;5063450;28;20487;-59
2021/01/09 10:35:04;;;;;;;11.93;9.63;;;20.50;42.40;;;;;;5074871;28;20127;-60
2021/01/09 10:37:29;;;;;;;14.20;12.02;;;20.50;42.20;;;;;;5078826;28;20091;-60
2021/01/09 10:39:55;;;;;;;11.52;10.15;;;20.60;41.60;;;;;;5078210;28;20103;-60
2021/01/09 10:42:21;;;;;;;6.50;5.57;;;20.60;40.90;;;;;;5089169;28;20020;-50
2021/01/09 10:44:48;;;;;;;8.25;6.70;;;20.70;39.00;;;;;;5086333;28;20073;-50
2021/01/09 10:47:14;;;;;;;7.45;6.70;;;20.70;39.00;;;;;;5079112;28;20055;-49
2021/01/09 10:49:40;;;;;;;3.53;3.10;;;20.70;39.30;;;;;;5081998;28;20056;-50
2021/01/09 10:52:06;;;;;;;3.70;2.20;;;20.80;38.80;;;;;;5085628;28;20036;-50
2021/01/09 10:54:32;;;;;;;3.85;2.03;;;20.80;38.00;;;;;;5081327;28;20065;-50
2021/01/09 10:56:57;;;;;;;7.50;2.53;;;20.90;38.00;;;;;;5083379;28;20027;-50
2021/01/09 10:59:23;;;;;;;3.85;2.25;;;21.00;38.10;;;;;;5078809;28;20032;-50
2021/01/09 11:01:49;;;;;;;1.77;1.30;;;21.10;37.80;;;;;;5083097;28;20020;-50
2021/01/09 11:04:15;;;;;;;1.20;1.10;;;21.10;37.00;;;;;;5063757;28;20047;-49
2021/01/09 11:06:41;;;;;;;1.90;1.25;;;21.30;37.20;;;;;;5084032;28;20024;-50
2021/01/09 11:09:07;;;;;;;3.95;1.65;;;21.40;36.80;;;;;;5082296;28;20466;-50
2021/01/09 11:11:33;;;;;;;2.75;1.63;;;21.50;36.90;;;;;;5079341;28;20047;-50
2021/01/09 11:13:59;;;;;;;2.63;1.75;;;21.60;36.60;;;;;;5075046;28;20047;-50
2021/01/09 11:16:25;;;;;;;56.58;50.70;;;21.70;36.40;;;;;;5060525;28;20516;-50
2021/01/09 11:18:52;;;;;;;41.17;37.08;;;21.90;36.40;;;;;;5080918;28;20024;-50
2021/01/09 11:21:19;;;;;;;28.35;25.20;;;22.10;36.10;;;;;;5077298;28;20057;-50
2021/01/09 11:23:46;;;;;;;16.90;14.95;;;22.40;35.60;;;;;;5083712;28;20123;-52
2021/01/09 11:26:13;;;;;;;13.05;10.13;;;22.80;35.60;;;;;;5076647;28;20074;-50
2021/01/09 11:28:39;;;;;;;19.13;17.20;;;23.10;35.10;;;;;;5073202;28;20044;-52
2021/01/09 11:31:08;;;;;;;25.40;20.10;;;23.50;34.80;;;;;;5081728;28;20051;-49
2021/01/09 11:33:34;;;;;;;17.63;15.20;;;23.80;33.50;;;;;;5079355;28;20078;-50
2021/01/09 11:36:00;;;;;;;13.60;11.88;;;24.20;33.40;;;;;;5081023;28;20276;-50
2021/01/09 11:38:26;;;;;;;9.80;8.80;;;24.50;32.70;;;;;;5068533;28;20028;-50
2021/01/09 11:40:52;;;;;;;13.30;10.40;;;24.80;31.60;;;;;;5059151;28;20142;-50
2021/01/09 11:43:19;;;;;;;8.75;7.18;;;25.10;31.20;;;;;;5072983;28;20082;-50
2021/01/09 11:45:45;;;;;;;8.73;6.25;;;25.30;30.50;;;;;;5083684;28;20051;-51
2021/01/09 11:48:11;;;;;;;5.40;4.90;;;25.50;30.30;;;;;;5046451;28;20516;-60
2021/01/09 11:50:37;;;;;;;4.90;4.45;;;25.60;30.00;;;;;;5052061;28;20486;-61
2021/01/09 11:53:03;;;;;;;17.42;9.10;;;25.80;29.70;;;;;;5050323;28;20024;-62
2021/01/09 11:55:30;;;;;;;13.02;6.88;;;25.80;29.80;;;;;;5077678;28;20084;-61
2021/01/09 11:57:56;;;;;;;15.57;7.43;;;25.90;29.60;;;;;;5082629;28;20033;-58
2021/01/09 12:00:22;;;;;;;9.15;5.40;;;25.90;29.30;;;;;;5084920;28;20028;-59
2021/01/09 12:02:48;;;;;;;5.40;4.00;;;25.90;29.00;;;;;;5065533;28;20099;-59
2021/01/09 12:05:15;;;;;;;8.25;4.80;;;25.90;28.70;;;;;;5055479;28;20029;-60
2021/01/09 12:07:41;;;;;;;7.00;4.28;;;25.90;28.90;;;;;;5088415;28;20074;-60
2021/01/09 12:10:08;;;;;;;5.57;3.80;;;25.90;28.70;;;;;;5089807;28;20107;-60
2021/01/09 12:12:36;;;;;;;4.47;2.83;;;25.90;28.70;;;;;;5063459;28;20466;-60
2021/01/09 12:15:03;;;;;;;8.07;3.50;;;25.90;28.70;;;;;;5067763;28;20051;-59
2021/01/09 12:17:30;;;;;;;7.95;3.72;;;25.80;28.70;;;;;;5068983;28;20489;-60
2021/01/09 12:19:57;;;;;;;5.18;3.30;;;25.80;28.80;;;;;;5064491;28;20056;-50
2021/01/09 12:22:25;;;;;;;6.60;3.58;;;25.90;28.80;;;;;;5070527;28;21056;-59
2021/01/09 12:24:51;;;;;;;3.97;2.60;;;25.80;28.80;;;;;;5081837;28;20028;-60
2021/01/09 12:27:18;;;;;;;3.95;2.17;;;25.80;28.90;;;;;;5089549;28;20036;-59
2021/01/09 12:29:45;;;;;;;2.67;1.40;;;25.80;28.70;;;;;;5065605;28;20032;-50
2021/01/09 12:32:11;;;;;;;2.85;1.70;;;25.90;28.20;;;;;;5087352;28;20032;-51
2021/01/09 12:34:37;;;;;;;3.20;1.70;;;25.90;28.20;;;;;;5063913;28;20040;-50
2021/01/09 12:37:04;;;;;;;3.95;1.50;;;26.00;28.20;;;;;;5082222;28;20040;-51
2021/01/09 12:39:31;;;;;;;5.03;1.75;;;26.10;27.90;;;;;;5045689;28;20533;-51
2021/01/09 12:41:57;;;;;;;1.95;1.42;;;26.20;27.80;;;;;;5062426;28;20056;-51
2021/01/09 12:44:27;;;;;;;2.58;1.50;;;26.20;27.50;;;;;;5064796;28;20086;-60